sensor_id;sensor_type;location;lat;lon;timestamp;P1;durP1;ratioP1;P2;durP2;ratioP2
20245;SDS011;10281;54.406;18.556;2023-07-28T00:01:32;3.80;;;2.20;;
20245;SDS011;10281;54.406;18.556;2023-07-28T00:03:59;3.83;;;2.40;;
20245;SDS011;10281;54.406;18.556;2023-07-28T00:06:25;2.97;;;2.73;;
20245;SDS011;10281;54.406;18.556;2023-07-28T00:08:52;3.60;;;2.43;;
20245;SDS011;10281;54.406;18.556;2023-07-28T00:11:18;4.77;;;2.30;;
20245;SDS011;10281;54.406;18.556;2023-07-28T00:13:45;3.77;;;2.40;;
20245;SDS011;10281;54.406;18.556;2023-07-28T00:16:12;3.77;;;2.30;;
20245;SDS011;10281;54.406;18.556;2023-07-28T00:18:40;2.90;;;2.27;;
20245;SDS011;10281;54.406;18.556;2023-07-28T00:21:06;4.77;;;2.20;;
20245;SDS011;10281;54.406;18.556;2023-07-28T00:23:33;3.67;;;2.60;;
20245;SDS011;10281;54.406;18.556;2023-07-28T00:25:59;5.37;;;2.53;;
20245;SDS011;10281;54.406;18.556;2023-07-28T00:28:26;5.17;;;2.43;;
20245;SDS011;10281;54.406;18.556;2023-07-28T00:30:53;3.10;;;1.90;;
20245;SDS011;10281;54.406;18.556;2023-07-28T00:33:19;3.13;;;2.53;;
20245;SDS011;10281;54.406;18.556;2023-07-28T00:35:46;3.10;;;2.40;;
20245;SDS011;10281;54.406;18.556;2023-07-28T00:38:12;4.47;;;2.43;;
20245;SDS011;10281;54.406;18.556;2023-07-28T00:40:39;4.00;;;2.30;;
20245;SDS011;10281;54.406;18.556;2023-07-28T00:43:06;3.50;;;2.20;;
20245;SDS011;10281;54.406;18.556;2023-07-28T00:45:32;3.00;;;2.13;;
20245;SDS011;10281;54.406;18.556;2023-07-28T00:48:00;2.70;;;2.50;;
20245;SDS011;10281;54.406;18.556;2023-07-28T00:50:27;3.73;;;2.20;;
20245;SDS011;10281;54.406;18.556;2023-07-28T00:52:54;2.60;;;2.13;;
20245;SDS011;10281;54.406;18.556;2023-07-28T00:55:22;3.67;;;2.47;;
20245;SDS011;10281;54.406;18.556;2023-07-28T00:57:49;3.00;;;2.20;;
20245;SDS011;10281;54.406;18.556;2023-07-28T01:00:16;2.83;;;2.50;;
20245;SDS011;10281;54.406;18.556;2023-07-28T01:02:43;4.90;;;2.40;;
20245;SDS011;10281;54.406;18.556;2023-07-28T01:05:10;3.30;;;2.07;;
20245;SDS011;10281;54.406;18.556;2023-07-28T01:07:42;2.50;;;2.30;;
20245;SDS011;10281;54.406;18.556;2023-07-28T01:10:12;4.03;;;2.60;;
20245;SDS011;10281;54.406;18.556;2023-07-28T01:12:41;3.07;;;2.30;;
20245;SDS011;10281;54.406;18.556;2023-07-28T01:15:08;2.33;;;1.97;;
20245;SDS011;10281;54.406;18.556;2023-07-28T01:17:35;4.30;;;2.30;;
20245;SDS011;10281;54.406;18.556;2023-07-28T01:20:02;3.60;;;2.80;;
20245;SDS011;10281;54.406;18.556;2023-07-28T01:25:12;2.87;;;2.07;;
20245;SDS011;10281;54.406;18.556;2023-07-28T01:27:41;4.13;;;2.20;;
20245;SDS011;10281;54.406;18.556;2023-07-28T01:30:09;4.70;;;2.33;;
20245;SDS011;10281;54.406;18.556;2023-07-28T01:32:37;3.13;;;2.53;;
20245;SDS011;10281;54.406;18.556;2023-07-28T01:35:04;4.07;;;2.30;;
20245;SDS011;10281;54.406;18.556;2023-07-28T01:37:31;2.60;;;2.20;;
20245;SDS011;10281;54.406;18.556;2023-07-28T01:39:57;4.10;;;2.40;;
20245;SDS011;10281;54.406;18.556;2023-07-28T01:42:24;2.87;;;2.40;;
20245;SDS011;10281;54.406;18.556;2023-07-28T01:44:51;4.87;;;2.30;;
20245;SDS011;10281;54.406;18.556;2023-07-28T01:47:17;4.37;;;2.50;;
20245;SDS011;10281;54.406;18.556;2023-07-28T01:49:44;2.93;;;2.10;;
20245;SDS011;10281;54.406;18.556;2023-07-28T01:52:10;4.00;;;2.27;;
20245;SDS011;10281;54.406;18.556;2023-07-28T01:54:37;4.23;;;2.43;;
20245;SDS011;10281;54.406;18.556;2023-07-28T01:57:04;3.67;;;2.63;;
20245;SDS011;10281;54.406;18.556;2023-07-28T01:59:31;3.53;;;2.47;;
20245;SDS011;10281;54.406;18.556;2023-07-28T02:01:57;3.73;;;2.07;;
20245;SDS011;10281;54.406;18.556;2023-07-28T02:04:24;4.07;;;2.27;;
20245;SDS011;10281;54.406;18.556;2023-07-28T02:06:50;4.97;;;2.73;;
20245;SDS011;10281;54.406;18.556;2023-07-28T02:09:17;3.73;;;2.23;;
20245;SDS011;10281;54.406;18.556;2023-07-28T02:11:44;3.97;;;2.37;;
20245;SDS011;10281;54.406;18.556;2023-07-28T02:14:10;4.07;;;2.50;;
20245;SDS011;10281;54.406;18.556;2023-07-28T02:16:37;4.03;;;2.80;;
20245;SDS011;10281;54.406;18.556;2023-07-28T02:19:03;3.80;;;2.27;;
20245;SDS011;10281;54.406;18.556;2023-07-28T02:21:30;3.57;;;2.70;;
20245;SDS011;10281;54.406;18.556;2023-07-28T02:23:57;4.63;;;2.57;;
20245;SDS011;10281;54.406;18.556;2023-07-28T02:26:24;3.40;;;2.57;;
20245;SDS011;10281;54.406;18.556;2023-07-28T02:28:50;2.87;;;2.30;;
20245;SDS011;10281;54.406;18.556;2023-07-28T02:31:17;6.00;;;2.60;;
20245;SDS011;10281;54.406;18.556;2023-07-28T02:33:44;4.30;;;2.30;;
20245;SDS011;10281;54.406;18.556;2023-07-28T02:36:10;3.20;;;2.70;;
20245;SDS011;10281;54.406;18.556;2023-07-28T02:38:37;4.53;;;2.60;;
20245;SDS011;10281;54.406;18.556;2023-07-28T02:41:03;6.23;;;2.70;;
20245;SDS011;10281;54.406;18.556;2023-07-28T02:43:30;4.93;;;2.80;;
20245;SDS011;10281;54.406;18.556;2023-07-28T02:45:57;3.53;;;2.17;;
20245;SDS011;10281;54.406;18.556;2023-07-28T02:48:24;3.03;;;2.50;;
20245;SDS011;10281;54.406;18.556;2023-07-28T02:50:51;4.27;;;2.37;;
20245;SDS011;10281;54.406;18.556;2023-07-28T02:53:18;4.60;;;2.60;;
20245;SDS011;10281;54.406;18.556;2023-07-28T02:55:45;4.00;;;2.50;;
20245;SDS011;10281;54.406;18.556;2023-07-28T02:58:13;3.73;;;2.23;;
20245;SDS011;10281;54.406;18.556;2023-07-28T03:00:40;3.83;;;2.77;;
20245;SDS011;10281;54.406;18.556;2023-07-28T03:03:09;3.33;;;2.87;;
20245;SDS011;10281;54.406;18.556;2023-07-28T03:05:36;3.87;;;2.70;;
20245;SDS011;10281;54.406;18.556;2023-07-28T03:08:04;4.03;;;2.87;;
20245;SDS011;10281;54.406;18.556;2023-07-28T03:10:31;5.17;;;2.70;;
20245;SDS011;10281;54.406;18.556;2023-07-28T03:12:58;5.27;;;2.70;;
20245;SDS011;10281;54.406;18.556;2023-07-28T03:15:25;3.70;;;2.50;;
20245;SDS011;10281;54.406;18.556;2023-07-28T03:17:51;5.13;;;2.90;;
20245;SDS011;10281;54.406;18.556;2023-07-28T03:20:20;4.63;;;2.87;;
20245;SDS011;10281;54.406;18.556;2023-07-28T03:22:47;3.00;;;2.60;;
20245;SDS011;10281;54.406;18.556;2023-07-28T03:25:13;5.90;;;2.90;;
20245;SDS011;10281;54.406;18.556;2023-07-28T03:27:40;6.23;;;2.90;;
20245;SDS011;10281;54.406;18.556;2023-07-28T03:30:07;6.53;;;2.70;;
20245;SDS011;10281;54.406;18.556;2023-07-28T03:32:36;4.13;;;2.80;;
20245;SDS011;10281;54.406;18.556;2023-07-28T03:35:03;5.70;;;3.40;;
20245;SDS011;10281;54.406;18.556;2023-07-28T03:37:31;3.10;;;2.80;;
20245;SDS011;10281;54.406;18.556;2023-07-28T03:39:58;4.63;;;2.87;;
20245;SDS011;10281;54.406;18.556;2023-07-28T03:42:26;5.47;;;2.80;;
20245;SDS011;10281;54.406;18.556;2023-07-28T03:44:52;3.40;;;2.67;;
20245;SDS011;10281;54.406;18.556;2023-07-28T03:47:19;5.53;;;3.37;;
20245;SDS011;10281;54.406;18.556;2023-07-28T03:49:46;3.73;;;2.77;;
20245;SDS011;10281;54.406;18.556;2023-07-28T03:52:12;3.03;;;2.50;;
20245;SDS011;10281;54.406;18.556;2023-07-28T03:54:39;6.63;;;2.90;;
20245;SDS011;10281;54.406;18.556;2023-07-28T03:57:06;3.73;;;2.93;;
20245;SDS011;10281;54.406;18.556;2023-07-28T03:59:34;3.73;;;2.93;;
20245;SDS011;10281;54.406;18.556;2023-07-28T04:02:01;3.73;;;2.87;;
20245;SDS011;10281;54.406;18.556;2023-07-28T04:04:28;4.70;;;3.00;;
20245;SDS011;10281;54.406;18.556;2023-07-28T04:06:54;3.20;;;2.87;;
20245;SDS011;10281;54.406;18.556;2023-07-28T04:09:21;5.13;;;3.10;;
20245;SDS011;10281;54.406;18.556;2023-07-28T04:11:48;6.63;;;2.90;;
20245;SDS011;10281;54.406;18.556;2023-07-28T04:14:14;5.03;;;2.53;;
20245;SDS011;10281;54.406;18.556;2023-07-28T04:16:41;4.17;;;3.07;;
20245;SDS011;10281;54.406;18.556;2023-07-28T04:19:08;4.53;;;2.83;;
20245;SDS011;10281;54.406;18.556;2023-07-28T04:21:34;3.67;;;3.27;;
20245;SDS011;10281;54.406;18.556;2023-07-28T04:24:03;5.13;;;3.10;;
20245;SDS011;10281;54.406;18.556;2023-07-28T04:26:30;4.63;;;2.77;;
20245;SDS011;10281;54.406;18.556;2023-07-28T04:28:56;3.67;;;2.67;;
20245;SDS011;10281;54.406;18.556;2023-07-28T04:31:23;5.57;;;3.13;;
20245;SDS011;10281;54.406;18.556;2023-07-28T04:33:49;4.87;;;2.93;;
20245;SDS011;10281;54.406;18.556;2023-07-28T04:36:16;4.00;;;3.07;;
20245;SDS011;10281;54.406;18.556;2023-07-28T04:38:43;4.77;;;3.13;;
20245;SDS011;10281;54.406;18.556;2023-07-28T04:41:09;3.63;;;2.60;;
20245;SDS011;10281;54.406;18.556;2023-07-28T04:43:36;4.93;;;3.13;;
20245;SDS011;10281;54.406;18.556;2023-07-28T04:46:02;3.13;;;2.77;;
20245;SDS011;10281;54.406;18.556;2023-07-28T04:48:29;3.40;;;2.60;;
20245;SDS011;10281;54.406;18.556;2023-07-28T04:50:56;3.53;;;2.90;;
20245;SDS011;10281;54.406;18.556;2023-07-28T04:53:22;3.90;;;3.03;;
20245;SDS011;10281;54.406;18.556;2023-07-28T04:55:49;4.30;;;3.03;;
20245;SDS011;10281;54.406;18.556;2023-07-28T04:58:16;4.20;;;2.93;;
20245;SDS011;10281;54.406;18.556;2023-07-28T05:00:42;6.23;;;3.00;;
20245;SDS011;10281;54.406;18.556;2023-07-28T05:03:09;4.57;;;2.80;;
20245;SDS011;10281;54.406;18.556;2023-07-28T05:05:36;4.53;;;2.87;;
20245;SDS011;10281;54.406;18.556;2023-07-28T05:08:02;4.23;;;3.10;;
20245;SDS011;10281;54.406;18.556;2023-07-28T05:10:29;5.37;;;3.47;;
20245;SDS011;10281;54.406;18.556;2023-07-28T05:12:56;3.43;;;2.60;;
20245;SDS011;10281;54.406;18.556;2023-07-28T05:15:22;4.93;;;3.17;;
20245;SDS011;10281;54.406;18.556;2023-07-28T05:17:49;6.83;;;3.40;;
20245;SDS011;10281;54.406;18.556;2023-07-28T05:20:16;6.07;;;3.17;;
20245;SDS011;10281;54.406;18.556;2023-07-28T05:22:42;4.07;;;2.77;;
20245;SDS011;10281;54.406;18.556;2023-07-28T05:25:09;6.33;;;3.10;;
20245;SDS011;10281;54.406;18.556;2023-07-28T05:27:36;4.10;;;2.77;;
20245;SDS011;10281;54.406;18.556;2023-07-28T05:30:02;3.30;;;2.80;;
20245;SDS011;10281;54.406;18.556;2023-07-28T05:32:29;4.17;;;3.07;;
20245;SDS011;10281;54.406;18.556;2023-07-28T05:34:56;5.47;;;3.17;;
20245;SDS011;10281;54.406;18.556;2023-07-28T05:37:23;3.83;;;2.80;;
20245;SDS011;10281;54.406;18.556;2023-07-28T05:39:50;3.40;;;3.00;;
20245;SDS011;10281;54.406;18.556;2023-07-28T05:42:16;7.83;;;3.40;;
20245;SDS011;10281;54.406;18.556;2023-07-28T05:44:43;5.10;;;3.80;;
20245;SDS011;10281;54.406;18.556;2023-07-28T05:47:10;4.40;;;3.40;;
20245;SDS011;10281;54.406;18.556;2023-07-28T05:49:37;4.20;;;3.00;;
20245;SDS011;10281;54.406;18.556;2023-07-28T05:52:04;3.20;;;2.80;;
20245;SDS011;10281;54.406;18.556;2023-07-28T05:54:30;5.00;;;3.03;;
20245;SDS011;10281;54.406;18.556;2023-07-28T05:56:57;3.80;;;3.17;;
20245;SDS011;10281;54.406;18.556;2023-07-28T05:59:24;4.83;;;3.37;;
20245;SDS011;10281;54.406;18.556;2023-07-28T06:01:50;4.57;;;3.10;;
20245;SDS011;10281;54.406;18.556;2023-07-28T06:04:17;6.27;;;3.00;;
20245;SDS011;10281;54.406;18.556;2023-07-28T06:06:44;3.43;;;2.87;;
20245;SDS011;10281;54.406;18.556;2023-07-28T06:09:10;3.90;;;3.20;;
20245;SDS011;10281;54.406;18.556;2023-07-28T06:11:37;3.30;;;3.00;;
20245;SDS011;10281;54.406;18.556;2023-07-28T06:14:04;3.80;;;3.47;;
20245;SDS011;10281;54.406;18.556;2023-07-28T06:16:30;3.93;;;3.10;;
20245;SDS011;10281;54.406;18.556;2023-07-28T06:18:57;5.33;;;3.40;;
20245;SDS011;10281;54.406;18.556;2023-07-28T06:21:24;3.87;;;3.40;;
20245;SDS011;10281;54.406;18.556;2023-07-28T06:23:50;3.47;;;3.17;;
20245;SDS011;10281;54.406;18.556;2023-07-28T06:26:17;4.80;;;3.53;;
20245;SDS011;10281;54.406;18.556;2023-07-28T06:28:44;4.27;;;3.50;;
20245;SDS011;10281;54.406;18.556;2023-07-28T06:31:11;5.60;;;3.60;;
20245;SDS011;10281;54.406;18.556;2023-07-28T06:33:37;5.97;;;3.70;;
20245;SDS011;10281;54.406;18.556;2023-07-28T06:36:04;6.43;;;3.87;;
20245;SDS011;10281;54.406;18.556;2023-07-28T06:38:31;5.43;;;3.40;;
20245;SDS011;10281;54.406;18.556;2023-07-28T06:40:58;7.00;;;3.70;;
20245;SDS011;10281;54.406;18.556;2023-07-28T06:43:25;5.33;;;4.03;;
20245;SDS011;10281;54.406;18.556;2023-07-28T06:45:53;6.57;;;3.90;;
20245;SDS011;10281;54.406;18.556;2023-07-28T06:48:20;4.60;;;3.87;;
20245;SDS011;10281;54.406;18.556;2023-07-28T06:50:47;5.93;;;3.77;;
20245;SDS011;10281;54.406;18.556;2023-07-28T06:53:14;4.47;;;3.70;;
20245;SDS011;10281;54.406;18.556;2023-07-28T06:55:42;5.77;;;3.70;;
20245;SDS011;10281;54.406;18.556;2023-07-28T06:58:09;7.27;;;3.70;;
20245;SDS011;10281;54.406;18.556;2023-07-28T07:00:36;5.40;;;3.80;;
20245;SDS011;10281;54.406;18.556;2023-07-28T07:03:03;8.23;;;4.10;;
20245;SDS011;10281;54.406;18.556;2023-07-28T07:05:29;8.03;;;4.30;;
20245;SDS011;10281;54.406;18.556;2023-07-28T07:07:56;9.00;;;4.50;;
20245;SDS011;10281;54.406;18.556;2023-07-28T07:10:23;7.93;;;4.27;;
20245;SDS011;10281;54.406;18.556;2023-07-28T07:12:50;6.03;;;4.00;;
20245;SDS011;10281;54.406;18.556;2023-07-28T07:15:17;6.20;;;4.03;;
20245;SDS011;10281;54.406;18.556;2023-07-28T07:17:44;7.77;;;4.50;;
20245;SDS011;10281;54.406;18.556;2023-07-28T07:20:11;7.63;;;4.37;;
20245;SDS011;10281;54.406;18.556;2023-07-28T07:22:38;5.97;;;4.07;;
20245;SDS011;10281;54.406;18.556;2023-07-28T07:25:04;5.33;;;4.17;;
20245;SDS011;10281;54.406;18.556;2023-07-28T07:27:32;5.83;;;4.03;;
20245;SDS011;10281;54.406;18.556;2023-07-28T07:29:59;7.63;;;3.83;;
20245;SDS011;10281;54.406;18.556;2023-07-28T07:32:25;10.53;;;4.10;;
20245;SDS011;10281;54.406;18.556;2023-07-28T07:34:52;8.37;;;4.57;;
20245;SDS011;10281;54.406;18.556;2023-07-28T07:37:19;6.93;;;4.20;;
20245;SDS011;10281;54.406;18.556;2023-07-28T07:39:45;8.57;;;3.90;;
20245;SDS011;10281;54.406;18.556;2023-07-28T07:42:12;4.73;;;3.67;;
20245;SDS011;10281;54.406;18.556;2023-07-28T07:44:39;6.40;;;3.87;;
20245;SDS011;10281;54.406;18.556;2023-07-28T07:47:11;7.77;;;3.77;;
20245;SDS011;10281;54.406;18.556;2023-07-28T07:49:40;6.83;;;4.40;;
20245;SDS011;10281;54.406;18.556;2023-07-28T07:52:07;6.50;;;4.10;;
20245;SDS011;10281;54.406;18.556;2023-07-28T07:54:35;11.33;;;4.17;;
20245;SDS011;10281;54.406;18.556;2023-07-28T07:57:02;5.70;;;4.33;;
20245;SDS011;10281;54.406;18.556;2023-07-28T07:59:29;6.87;;;4.40;;
20245;SDS011;10281;54.406;18.556;2023-07-28T08:01:58;6.03;;;4.50;;
20245;SDS011;10281;54.406;18.556;2023-07-28T08:04:27;5.33;;;4.03;;
20245;SDS011;10281;54.406;18.556;2023-07-28T08:06:54;5.67;;;3.70;;
20245;SDS011;10281;54.406;18.556;2023-07-28T08:09:20;4.53;;;3.87;;
20245;SDS011;10281;54.406;18.556;2023-07-28T08:11:47;4.87;;;4.23;;
20245;SDS011;10281;54.406;18.556;2023-07-28T08:14:14;7.30;;;4.60;;
20245;SDS011;10281;54.406;18.556;2023-07-28T08:16:41;8.03;;;4.13;;
20245;SDS011;10281;54.406;18.556;2023-07-28T08:19:08;6.33;;;4.40;;
20245;SDS011;10281;54.406;18.556;2023-07-28T08:21:35;9.27;;;3.73;;
20245;SDS011;10281;54.406;18.556;2023-07-28T08:24:03;5.63;;;4.20;;
20245;SDS011;10281;54.406;18.556;2023-07-28T08:26:30;6.03;;;4.30;;
20245;SDS011;10281;54.406;18.556;2023-07-28T08:28:57;6.10;;;3.97;;
20245;SDS011;10281;54.406;18.556;2023-07-28T08:31:23;4.60;;;3.53;;
20245;SDS011;10281;54.406;18.556;2023-07-28T08:33:50;7.17;;;3.80;;
20245;SDS011;10281;54.406;18.556;2023-07-28T08:36:17;6.17;;;4.47;;
20245;SDS011;10281;54.406;18.556;2023-07-28T08:38:43;7.53;;;4.07;;
20245;SDS011;10281;54.406;18.556;2023-07-28T08:41:12;9.57;;;4.27;;
20245;SDS011;10281;54.406;18.556;2023-07-28T08:43:39;5.07;;;3.90;;
20245;SDS011;10281;54.406;18.556;2023-07-28T08:46:06;5.93;;;3.70;;
20245;SDS011;10281;54.406;18.556;2023-07-28T08:48:33;8.00;;;3.97;;
20245;SDS011;10281;54.406;18.556;2023-07-28T08:51:00;7.33;;;3.80;;
20245;SDS011;10281;54.406;18.556;2023-07-28T08:53:29;6.43;;;3.93;;
20245;SDS011;10281;54.406;18.556;2023-07-28T08:55:56;6.60;;;3.90;;
20245;SDS011;10281;54.406;18.556;2023-07-28T08:58:23;4.93;;;3.70;;
20245;SDS011;10281;54.406;18.556;2023-07-28T09:00:50;8.40;;;4.50;;
20245;SDS011;10281;54.406;18.556;2023-07-28T09:03:18;6.77;;;3.80;;
20245;SDS011;10281;54.406;18.556;2023-07-28T09:05:45;8.43;;;4.33;;
20245;SDS011;10281;54.406;18.556;2023-07-28T09:08:13;5.33;;;3.67;;
20245;SDS011;10281;54.406;18.556;2023-07-28T09:10:41;8.00;;;4.07;;
20245;SDS011;10281;54.406;18.556;2023-07-28T09:13:10;5.43;;;3.80;;
20245;SDS011;10281;54.406;18.556;2023-07-28T09:15:38;4.90;;;4.00;;
20245;SDS011;10281;54.406;18.556;2023-07-28T09:18:07;5.87;;;3.67;;
20245;SDS011;10281;54.406;18.556;2023-07-28T09:20:36;3.97;;;3.30;;
20245;SDS011;10281;54.406;18.556;2023-07-28T09:23:04;4.67;;;3.80;;
20245;SDS011;10281;54.406;18.556;2023-07-28T09:25:33;4.73;;;3.70;;
20245;SDS011;10281;54.406;18.556;2023-07-28T09:28:02;4.93;;;3.77;;
20245;SDS011;10281;54.406;18.556;2023-07-28T09:33:08;3.93;;;3.47;;
20245;SDS011;10281;54.406;18.556;2023-07-28T09:35:35;4.00;;;3.20;;
20245;SDS011;10281;54.406;18.556;2023-07-28T09:38:05;4.63;;;3.30;;
20245;SDS011;10281;54.406;18.556;2023-07-28T09:40:32;5.40;;;3.83;;
20245;SDS011;10281;54.406;18.556;2023-07-28T09:42:58;7.13;;;3.83;;
20245;SDS011;10281;54.406;18.556;2023-07-28T09:45:25;5.50;;;4.33;;
20245;SDS011;10281;54.406;18.556;2023-07-28T09:47:52;6.27;;;4.20;;
20245;SDS011;10281;54.406;18.556;2023-07-28T09:50:22;4.83;;;4.27;;
20245;SDS011;10281;54.406;18.556;2023-07-28T09:52:53;5.90;;;4.57;;
20245;SDS011;10281;54.406;18.556;2023-07-28T09:55:20;7.30;;;4.03;;
20245;SDS011;10281;54.406;18.556;2023-07-28T09:57:50;7.17;;;4.20;;
20245;SDS011;10281;54.406;18.556;2023-07-28T10:00:19;6.20;;;3.83;;
20245;SDS011;10281;54.406;18.556;2023-07-28T10:02:48;9.00;;;4.33;;
20245;SDS011;10281;54.406;18.556;2023-07-28T10:05:15;6.00;;;4.00;;
20245;SDS011;10281;54.406;18.556;2023-07-28T10:07:43;5.07;;;4.03;;
20245;SDS011;10281;54.406;18.556;2023-07-28T10:10:11;11.23;;;4.40;;
20245;SDS011;10281;54.406;18.556;2023-07-28T10:12:40;6.43;;;4.07;;
20245;SDS011;10281;54.406;18.556;2023-07-28T10:15:13;6.87;;;4.10;;
20245;SDS011;10281;54.406;18.556;2023-07-28T10:17:45;6.03;;;3.67;;
20245;SDS011;10281;54.406;18.556;2023-07-28T10:22:53;7.43;;;4.20;;
20245;SDS011;10281;54.406;18.556;2023-07-28T10:25:22;5.03;;;4.53;;
20245;SDS011;10281;54.406;18.556;2023-07-28T10:27:50;6.93;;;4.23;;
20245;SDS011;10281;54.406;18.556;2023-07-28T10:30:17;5.70;;;4.00;;
20245;SDS011;10281;54.406;18.556;2023-07-28T10:32:47;6.07;;;4.00;;
20245;SDS011;10281;54.406;18.556;2023-07-28T10:38:22;5.97;;;4.10;;
20245;SDS011;10281;54.406;18.556;2023-07-28T10:40:34;5.67;;;3.80;;
20245;SDS011;10281;54.406;18.556;2023-07-28T10:43:02;6.23;;;3.70;;
20245;SDS011;10281;54.406;18.556;2023-07-28T12:50:17;4.77;;;4.37;;
20245;SDS011;10281;54.406;18.556;2023-07-28T12:52:44;6.57;;;4.87;;
20245;SDS011;10281;54.406;18.556;2023-07-28T12:55:10;6.80;;;4.50;;
20245;SDS011;10281;54.406;18.556;2023-07-28T12:57:37;7.23;;;4.80;;
20245;SDS011;10281;54.406;18.556;2023-07-28T13:00:04;6.20;;;4.50;;
20245;SDS011;10281;54.406;18.556;2023-07-28T13:02:34;5.23;;;4.10;;
20245;SDS011;10281;54.406;18.556;2023-07-28T13:05:00;6.43;;;4.37;;
20245;SDS011;10281;54.406;18.556;2023-07-28T13:07:27;5.47;;;4.60;;
20245;SDS011;10281;54.406;18.556;2023-07-28T13:09:55;6.60;;;4.33;;
20245;SDS011;10281;54.406;18.556;2023-07-28T13:12:22;5.63;;;4.77;;
20245;SDS011;10281;54.406;18.556;2023-07-28T13:14:48;8.20;;;4.23;;
20245;SDS011;10281;54.406;18.556;2023-07-28T13:17:15;4.47;;;4.07;;
20245;SDS011;10281;54.406;18.556;2023-07-28T13:19:42;5.73;;;4.30;;
20245;SDS011;10281;54.406;18.556;2023-07-28T13:22:08;6.53;;;4.30;;
20245;SDS011;10281;54.406;18.556;2023-07-28T13:24:35;5.47;;;4.20;;
20245;SDS011;10281;54.406;18.556;2023-07-28T13:27:02;7.20;;;5.00;;
20245;SDS011;10281;54.406;18.556;2023-07-28T13:29:28;4.63;;;4.13;;
20245;SDS011;10281;54.406;18.556;2023-07-28T13:31:57;4.77;;;4.37;;
20245;SDS011;10281;54.406;18.556;2023-07-28T13:34:27;7.23;;;4.77;;
20245;SDS011;10281;54.406;18.556;2023-07-28T13:36:54;7.40;;;4.97;;
20245;SDS011;10281;54.406;18.556;2023-07-28T13:39:22;7.40;;;4.93;;
20245;SDS011;10281;54.406;18.556;2023-07-28T13:41:49;7.70;;;5.40;;
20245;SDS011;10281;54.406;18.556;2023-07-28T13:44:16;9.73;;;5.20;;
20245;SDS011;10281;54.406;18.556;2023-07-28T13:46:43;6.77;;;4.90;;
20245;SDS011;10281;54.406;18.556;2023-07-28T13:49:09;7.53;;;4.97;;
20245;SDS011;10281;54.406;18.556;2023-07-28T13:51:36;5.77;;;4.63;;
20245;SDS011;10281;54.406;18.556;2023-07-28T13:54:03;6.43;;;4.70;;
20245;SDS011;10281;54.406;18.556;2023-07-28T13:56:29;6.00;;;4.53;;
20245;SDS011;10281;54.406;18.556;2023-07-28T13:58:57;5.37;;;4.80;;
20245;SDS011;10281;54.406;18.556;2023-07-28T14:01:23;8.60;;;4.50;;
20245;SDS011;10281;54.406;18.556;2023-07-28T14:03:50;5.53;;;4.90;;
20245;SDS011;10281;54.406;18.556;2023-07-28T14:06:16;7.00;;;4.80;;
20245;SDS011;10281;54.406;18.556;2023-07-28T14:08:43;6.07;;;4.77;;
20245;SDS011;10281;54.406;18.556;2023-07-28T14:11:10;5.23;;;4.63;;
20245;SDS011;10281;54.406;18.556;2023-07-28T14:13:37;6.70;;;5.17;;
20245;SDS011;10281;54.406;18.556;2023-07-28T14:16:04;6.33;;;5.53;;
20245;SDS011;10281;54.406;18.556;2023-07-28T14:18:31;8.13;;;5.80;;
20245;SDS011;10281;54.406;18.556;2023-07-28T14:20:57;7.30;;;6.00;;
20245;SDS011;10281;54.406;18.556;2023-07-28T14:23:25;8.90;;;5.77;;
20245;SDS011;10281;54.406;18.556;2023-07-28T14:25:52;9.13;;;6.77;;
20245;SDS011;10281;54.406;18.556;2023-07-28T14:28:20;7.30;;;5.97;;
20245;SDS011;10281;54.406;18.556;2023-07-28T14:30:47;10.67;;;6.70;;
20245;SDS011;10281;54.406;18.556;2023-07-28T14:33:15;8.17;;;6.27;;
20245;SDS011;10281;54.406;18.556;2023-07-28T14:35:43;8.67;;;6.57;;
20245;SDS011;10281;54.406;18.556;2023-07-28T14:38:11;10.00;;;7.27;;
20245;SDS011;10281;54.406;18.556;2023-07-28T14:40:37;10.10;;;6.70;;
20245;SDS011;10281;54.406;18.556;2023-07-28T14:43:06;7.13;;;6.33;;
20245;SDS011;10281;54.406;18.556;2023-07-28T14:45:33;9.67;;;7.23;;
20245;SDS011;10281;54.406;18.556;2023-07-28T14:48:00;10.17;;;6.60;;
20245;SDS011;10281;54.406;18.556;2023-07-28T14:50:28;7.53;;;5.73;;
20245;SDS011;10281;54.406;18.556;2023-07-28T14:52:57;8.60;;;6.20;;
20245;SDS011;10281;54.406;18.556;2023-07-28T14:55:25;11.50;;;6.50;;
20245;SDS011;10281;54.406;18.556;2023-07-28T14:57:52;7.77;;;6.00;;
20245;SDS011;10281;54.406;18.556;2023-07-28T15:00:19;9.77;;;6.77;;
20245;SDS011;10281;54.406;18.556;2023-07-28T15:02:46;11.07;;;6.53;;
20245;SDS011;10281;54.406;18.556;2023-07-28T15:05:13;8.40;;;6.90;;
20245;SDS011;10281;54.406;18.556;2023-07-28T15:07:39;7.43;;;6.10;;
20245;SDS011;10281;54.406;18.556;2023-07-28T15:10:06;8.57;;;6.73;;
20245;SDS011;10281;54.406;18.556;2023-07-28T15:12:33;14.20;;;6.53;;
20245;SDS011;10281;54.406;18.556;2023-07-28T15:15:00;9.57;;;6.60;;
20245;SDS011;10281;54.406;18.556;2023-07-28T15:17:27;9.77;;;6.80;;
20245;SDS011;10281;54.406;18.556;2023-07-28T15:19:53;9.60;;;6.30;;
20245;SDS011;10281;54.406;18.556;2023-07-28T15:22:20;10.47;;;7.47;;
20245;SDS011;10281;54.406;18.556;2023-07-28T15:24:46;10.80;;;7.33;;
20245;SDS011;10281;54.406;18.556;2023-07-28T15:27:13;9.93;;;7.23;;
20245;SDS011;10281;54.406;18.556;2023-07-28T15:29:40;7.50;;;6.27;;
20245;SDS011;10281;54.406;18.556;2023-07-28T15:32:06;10.07;;;7.20;;
20245;SDS011;10281;54.406;18.556;2023-07-28T15:34:33;10.03;;;7.70;;
20245;SDS011;10281;54.406;18.556;2023-07-28T15:37:00;8.40;;;6.90;;
20245;SDS011;10281;54.406;18.556;2023-07-28T15:39:28;11.00;;;7.77;;
20245;SDS011;10281;54.406;18.556;2023-07-28T15:41:55;10.13;;;6.47;;
20245;SDS011;10281;54.406;18.556;2023-07-28T15:44:22;10.10;;;7.00;;
20245;SDS011;10281;54.406;18.556;2023-07-28T15:46:50;9.03;;;6.60;;
20245;SDS011;10281;54.406;18.556;2023-07-28T15:49:18;8.43;;;6.57;;
20245;SDS011;10281;54.406;18.556;2023-07-28T15:51:45;7.70;;;6.47;;
20245;SDS011;10281;54.406;18.556;2023-07-28T15:54:12;7.10;;;5.43;;
20245;SDS011;10281;54.406;18.556;2023-07-28T15:56:39;7.30;;;5.30;;
20245;SDS011;10281;54.406;18.556;2023-07-28T15:59:06;7.13;;;5.73;;
20245;SDS011;10281;54.406;18.556;2023-07-28T16:01:33;6.33;;;5.20;;
20245;SDS011;10281;54.406;18.556;2023-07-28T16:04:00;5.57;;;4.87;;
20245;SDS011;10281;54.406;18.556;2023-07-28T16:06:26;6.80;;;5.47;;
20245;SDS011;10281;54.406;18.556;2023-07-28T16:08:53;7.10;;;4.97;;
20245;SDS011;10281;54.406;18.556;2023-07-28T16:11:19;7.40;;;4.27;;
20245;SDS011;10281;54.406;18.556;2023-07-28T16:13:46;4.77;;;3.93;;
20245;SDS011;10281;54.406;18.556;2023-07-28T16:16:13;4.30;;;3.90;;
20245;SDS011;10281;54.406;18.556;2023-07-28T16:18:40;4.13;;;3.73;;
20245;SDS011;10281;54.406;18.556;2023-07-28T16:21:06;5.03;;;3.87;;
20245;SDS011;10281;54.406;18.556;2023-07-28T16:23:33;4.40;;;4.00;;
20245;SDS011;10281;54.406;18.556;2023-07-28T16:26:00;4.33;;;3.93;;
20245;SDS011;10281;54.406;18.556;2023-07-28T16:28:26;5.97;;;3.57;;
20245;SDS011;10281;54.406;18.556;2023-07-28T16:30:53;6.37;;;4.00;;
20245;SDS011;10281;54.406;18.556;2023-07-28T16:33:19;4.37;;;3.87;;
20245;SDS011;10281;54.406;18.556;2023-07-28T16:35:47;4.33;;;3.93;;
20245;SDS011;10281;54.406;18.556;2023-07-28T16:38:13;7.50;;;3.90;;
20245;SDS011;10281;54.406;18.556;2023-07-28T16:40:40;4.50;;;3.70;;
20245;SDS011;10281;54.406;18.556;2023-07-28T16:43:06;4.83;;;3.70;;
20245;SDS011;10281;54.406;18.556;2023-07-28T16:45:33;4.30;;;3.63;;
20245;SDS011;10281;54.406;18.556;2023-07-28T16:48:00;5.17;;;3.50;;